Time;durP1;ratioP1;P1;durP2;ratioP2;P2;SDS_P1;SDS_P2;PMS_P1;PMS_P2;Temp;Humidity;BMP_temperature;BMP_pressure;BME280_temperature;BME280_humidity;BME280_pressure;Samples;Min_cycle;Max_cycle;Signal;HPM_P1;HPM_P2
2020/12/01 00:01:10;;;;;;;33.35;17.25;;;;;;;;;;4992186;28;20082;-62
2020/12/01 00:03:38;;;;;;;31.38;16.95;;;;;;;;;;4991857;28;20046;-61
2020/12/01 00:06:04;;;;;;;33.40;17.70;;;;;;;;;;4991419;28;20133;-62
2020/12/01 00:08:31;;;;;;;32.47;17.33;;;;;;;;;;4975449;28;20062;-62
2020/12/01 00:10:57;;;;;;;35.53;18.42;;;;;;;;;;4991930;28;20053;-62
2020/12/01 00:13:23;;;;;;;36.05;18.92;;;;;;;;;;4991547;28;20050;-62
2020/12/01 00:15:49;;;;;;;34.38;18.83;;;;;;;;;;4991503;28;20508;-61
2020/12/01 00:18:15;;;;;;;35.90;18.50;;;;;;;;;;4992296;28;20115;-61
2020/12/01 00:20:41;;;;;;;37.42;19.55;;;;;;;;;;4993382;28;20050;-61
2020/12/01 00:23:07;;;;;;;38.55;20.15;;;;;;;;;;4992115;28;20050;-61
2020/12/01 00:25:33;;;;;;;37.42;19.73;;;;;;;;;;4991189;28;20074;-61
2020/12/01 00:28:00;;;;;;;38.80;20.35;;;;;;;;;;4991452;28;20053;-61
2020/12/01 00:30:26;;;;;;;35.15;19.42;;;;;;;;;;4991517;28;20049;-62
2020/12/01 00:32:53;;;;;;;40.35;21.40;;;;;;;;;;4991523;28;20485;-62
2020/12/01 00:35:22;;;;;;;43.22;20.30;;;;;;;;;;4990755;28;20062;-61
2020/12/01 00:37:49;;;;;;;40.40;20.75;;;;;;;;;;4992837;28;20046;-61
2020/12/01 00:40:15;;;;;;;46.97;22.30;;;;;;;;;;4991270;28;20057;-61
2020/12/01 00:42:41;;;;;;;44.95;21.05;;;;;;;;;;4991345;28;20049;-62
2020/12/01 00:45:09;;;;;;;49.15;23.73;;;;;;;;;;4991116;28;20057;-62
2020/12/01 00:47:35;;;;;;;47.28;22.55;;;;;;;;;;4991006;28;20050;-62
2020/12/01 00:50:02;;;;;;;41.95;21.60;;;;;;;;;;4991183;28;20121;-61
2020/12/01 00:52:29;;;;;;;44.33;22.20;;;;;;;;;;4971945;28;20047;-61
2020/12/01 00:54:55;;;;;;;46.67;21.48;;;;;;;;;;4971732;28;20081;-61
2020/12/01 00:57:21;;;;;;;45.97;21.42;;;;;;;;;;4971238;28;20051;-61
2020/12/01 00:59:47;;;;;;;42.78;20.80;;;;;;;;;;4971952;28;20050;-61
2020/12/01 01:02:13;;;;;;;40.38;20.23;;;;;;;;;;4974916;28;20050;-61
2020/12/01 01:04:39;;;;;;;43.28;21.15;;;;;;;;;;4991068;28;20489;-61
2020/12/01 01:07:06;;;;;;;44.17;21.38;;;;;;;;;;4990888;28;20054;-61
2020/12/01 01:09:32;;;;;;;41.45;20.58;;;;;;;;;;4993657;28;20047;-61
2020/12/01 01:11:58;;;;;;;37.95;19.75;;;;;;;;;;4979085;28;20523;-61
2020/12/01 01:14:24;;;;;;;40.95;20.83;;;;;;;;;;4994751;28;20058;-61
2020/12/01 01:16:50;;;;;;;37.00;18.73;;;;;;;;;;4994563;28;20039;-61
2020/12/01 01:19:17;;;;;;;37.58;18.95;;;;;;;;;;4995234;28;20085;-60
2020/12/01 01:21:45;;;;;;;43.92;21.20;;;;;;;;;;4994883;28;20054;-60
2020/12/01 01:24:13;;;;;;;39.80;20.63;;;;;;;;;;4994968;28;20408;-59
2020/12/01 01:26:39;;;;;;;44.67;21.02;;;;;;;;;;4994121;28;20050;-60
2020/12/01 01:29:06;;;;;;;39.63;20.67;;;;;;;;;;4994970;28;20485;-60
2020/12/01 01:31:33;;;;;;;38.42;18.98;;;;;;;;;;4994793;28;20100;-60
2020/12/01 01:33:59;;;;;;;41.65;19.63;;;;;;;;;;4994701;28;20054;-60
2020/12/01 01:36:25;;;;;;;39.60;20.25;;;;;;;;;;4994132;28;20056;-61
2020/12/01 01:38:51;;;;;;;38.45;19.63;;;;;;;;;;4994661;28;20409;-60
2020/12/01 01:41:17;;;;;;;37.65;18.95;;;;;;;;;;4994505;28;20046;-60
2020/12/01 01:43:43;;;;;;;41.88;21.73;;;;;;;;;;4994793;28;20046;-60
2020/12/01 01:46:40;;;;;;;39.78;19.75;;;;;;;;;;4993837;28;20046;-60
2020/12/01 01:49:10;;;;;;;38.17;18.92;;;;;;;;;;4992973;28;20141;-60
2020/12/01 01:51:37;;;;;;;37.33;18.88;;;;;;;;;;4978630;28;20051;-60
2020/12/01 01:54:03;;;;;;;37.38;19.30;;;;;;;;;;4994334;28;20050;-60
2020/12/01 01:56:35;;;;;;;35.00;18.38;;;;;;;;;;5006688;23;20051;-60
2020/12/01 01:59:02;;;;;;;36.15;19.00;;;;;;;;;;4993999;28;20050;-61
2020/12/01 02:01:30;;;;;;;40.72;20.08;;;;;;;;;;4994066;28;20449;-59
2020/12/01 02:03:59;;;;;;;38.38;19.35;;;;;;;;;;4995437;28;20055;-60
2020/12/01 02:06:33;;;;;;;37.05;18.83;;;;;;;;;;4993645;28;20053;-59
2020/12/01 02:09:03;;;;;;;36.97;18.98;;;;;;;;;;4993548;28;20481;-60
2020/12/01 02:11:31;;;;;;;36.22;18.55;;;;;;;;;;4994001;28;20349;-60
2020/12/01 02:14:05;;;;;;;36.83;18.67;;;;;;;;;;4993385;28;20058;-59
2020/12/01 02:16:36;;;;;;;37.65;19.05;;;;;;;;;;4993555;28;20524;-60
2020/12/01 02:19:06;;;;;;;38.70;18.67;;;;;;;;;;4994088;28;20050;-60
2020/12/01 02:21:40;;;;;;;37.28;19.17;;;;;;;;;;4992849;28;20144;-60
2020/12/01 02:24:16;;;;;;;38.92;18.77;;;;;;;;;;4994197;28;20132;-60
2020/12/01 02:26:48;;;;;;;35.40;18.88;;;;;;;;;;4993415;28;20153;-60
2020/12/01 02:29:17;;;;;;;35.67;18.65;;;;;;;;;;4993930;28;20060;-60
2020/12/01 02:31:44;;;;;;;38.78;18.20;;;;;;;;;;4977654;28;20050;-60
2020/12/01 02:34:13;;;;;;;40.35;20.67;;;;;;;;;;4993218;28;20050;-60
2020/12/01 02:36:40;;;;;;;34.95;18.90;;;;;;;;;;4977361;28;20458;-60
2020/12/01 02:39:08;;;;;;;32.20;17.27;;;;;;;;;;4993576;28;20073;-60
2020/12/01 02:41:34;;;;;;;36.03;17.65;;;;;;;;;;4993422;28;21183;-61
2020/12/01 02:44:00;;;;;;;37.08;19.10;;;;;;;;;;4993549;28;20141;-61
2020/12/01 02:46:34;;;;;;;36.25;18.17;;;;;;;;;;4992507;28;20501;-60
2020/12/01 02:49:02;;;;;;;36.38;19.10;;;;;;;;;;4993755;28;20050;-59
2020/12/01 02:51:28;;;;;;;42.03;18.63;;;;;;;;;;4993154;28;20054;-60
2020/12/01 02:53:54;;;;;;;38.33;19.23;;;;;;;;;;4994535;28;20054;-60
2020/12/01 02:56:21;;;;;;;40.80;19.65;;;;;;;;;;4992218;28;20050;-61
2020/12/01 02:58:47;;;;;;;35.85;18.00;;;;;;;;;;4993690;28;20050;-60
2020/12/01 03:01:13;;;;;;;37.25;18.83;;;;;;;;;;4993252;28;20054;-60
2020/12/01 03:03:39;;;;;;;37.80;19.08;;;;;;;;;;4993205;28;20050;-61
2020/12/01 03:06:08;;;;;;;36.08;18.63;;;;;;;;;;4991669;28;20042;-60
2020/12/01 03:08:34;;;;;;;37.78;18.10;;;;;;;;;;4992584;28;20050;-59
2020/12/01 03:11:00;;;;;;;38.83;17.48;;;;;;;;;;4993344;28;20058;-60
2020/12/01 03:13:26;;;;;;;37.60;19.27;;;;;;;;;;4992753;28;20055;-60
2020/12/01 03:15:54;;;;;;;35.20;16.88;;;;;;;;;;4992155;28;20149;-61
2020/12/01 03:18:21;;;;;;;38.70;17.35;;;;;;;;;;4992623;28;20049;-60
2020/12/01 03:20:47;;;;;;;34.22;17.05;;;;;;;;;;4992892;28;20051;-59
2020/12/01 03:23:14;;;;;;;31.25;16.83;;;;;;;;;;4992832;28;20053;-60
2020/12/01 03:25:40;;;;;;;35.47;16.40;;;;;;;;;;4991697;28;20038;-60
2020/12/01 03:28:07;;;;;;;33.00;16.70;;;;;;;;;;4992770;28;20051;-60
2020/12/01 03:30:33;;;;;;;36.35;16.40;;;;;;;;;;4992608;28;20069;-59
2020/12/01 03:32:59;;;;;;;33.05;15.68;;;;;;;;;;4992642;28;20043;-60
2020/12/01 03:35:27;;;;;;;31.92;15.15;;;;;;;;;;4991246;28;20047;-60
2020/12/01 03:37:55;;;;;;;34.55;15.63;;;;;;;;;;4992570;28;20052;-61
2020/12/01 03:40:22;;;;;;;32.03;14.88;;;;;;;;;;4992347;28;20072;-60
2020/12/01 03:42:48;;;;;;;27.88;14.15;;;;;;;;;;4992039;28;20488;-60
2020/12/01 03:45:14;;;;;;;33.10;14.65;;;;;;;;;;4993034;28;20405;-60
2020/12/01 03:47:40;;;;;;;33.10;14.90;;;;;;;;;;4992356;28;20503;-60
2020/12/01 03:50:07;;;;;;;25.85;13.52;;;;;;;;;;4992337;28;20050;-60
2020/12/01 03:52:35;;;;;;;31.85;14.50;;;;;;;;;;4992264;28;20493;-60
2020/12/01 03:55:03;;;;;;;29.63;15.38;;;;;;;;;;4991924;28;20054;-61
2020/12/01 03:57:30;;;;;;;31.60;14.82;;;;;;;;;;4991565;28;20058;-60
2020/12/01 03:59:56;;;;;;;27.83;14.50;;;;;;;;;;4992359;28;20408;-60
2020/12/01 04:02:22;;;;;;;29.15;13.50;;;;;;;;;;4976586;28;20047;-60
2020/12/01 04:04:48;;;;;;;32.28;13.75;;;;;;;;;;4991870;28;20050;-60
2020/12/01 04:07:14;;;;;;;28.23;13.70;;;;;;;;;;4991563;28;20415;-60
2020/12/01 04:09:40;;;;;;;33.97;15.15;;;;;;;;;;4992018;28;20493;-60
2020/12/01 04:12:07;;;;;;;28.27;13.95;;;;;;;;;;4992039;28;20046;-60
2020/12/01 04:14:33;;;;;;;28.48;14.63;;;;;;;;;;4991225;28;20065;-60
2020/12/01 04:16:59;;;;;;;28.60;13.52;;;;;;;;;;4990992;28;20061;-60
2020/12/01 04:19:25;;;;;;;32.78;13.90;;;;;;;;;;4991689;28;20062;-60
2020/12/01 04:21:55;;;;;;;30.88;14.45;;;;;;;;;;4991202;28;20512;-59
2020/12/01 04:24:21;;;;;;;31.77;15.93;;;;;;;;;;4989914;28;20050;-59
2020/12/01 04:26:47;;;;;;;28.38;13.75;;;;;;;;;;4991457;28;20057;-60
2020/12/01 04:29:13;;;;;;;28.52;13.68;;;;;;;;;;4991667;28;20508;-60
2020/12/01 04:31:39;;;;;;;28.25;13.48;;;;;;;;;;4992930;28;20050;-60
2020/12/01 04:34:06;;;;;;;31.83;14.88;;;;;;;;;;4991425;28;20093;-59
2020/12/01 04:36:32;;;;;;;28.40;14.25;;;;;;;;;;4991185;28;20057;-59
2020/12/01 04:38:58;;;;;;;25.42;13.40;;;;;;;;;;4991650;28;20054;-60
2020/12/01 04:41:25;;;;;;;27.73;13.65;;;;;;;;;;4991617;28;20055;-60
2020/12/01 04:43:54;;;;;;;33.65;16.20;;;;;;;;;;4975949;28;20129;-59
2020/12/01 04:46:23;;;;;;;29.38;14.20;;;;;;;;;;4990860;28;20477;-60
2020/12/01 04:49:00;;;;;;;29.17;14.07;;;;;;;;;;4991500;28;20054;-60
2020/12/01 04:51:38;;;;;;;31.73;15.45;;;;;;;;;;4975814;28;20065;-60
2020/12/01 04:54:30;;;;;;;28.75;15.68;;;;;;;;;;4975373;28;20053;-59
2020/12/01 04:57:12;;;;;;;29.30;14.77;;;;;;;;;;4974868;28;20054;-59
2020/12/01 04:59:57;;;;;;;33.35;14.50;;;;;;;;;;4991205;28;20050;-59
2020/12/01 05:02:33;;;;;;;28.63;14.27;;;;;;;;;;4990862;28;20054;-59
2020/12/01 05:05:06;;;;;;;33.67;15.60;;;;;;;;;;4975772;28;20427;-60
2020/12/01 05:07:50;;;;;;;30.13;13.18;;;;;;;;;;4990903;28;20050;-60
2020/12/01 05:10:17;;;;;;;35.20;14.88;;;;;;;;;;4961974;28;20383;-60
2020/12/01 05:12:53;;;;;;;32.03;15.32;;;;;;;;;;4959132;28;20073;-59
2020/12/01 05:15:23;;;;;;;26.92;13.98;;;;;;;;;;4982469;23;20409;-60
2020/12/01 05:18:16;;;;;;;25.23;13.63;;;;;;;;;;4978273;23;20043;-59
2020/12/01 05:20:51;;;;;;;31.80;15.00;;;;;;;;;;5004113;28;20047;-59
2020/12/01 05:23:23;;;;;;;28.83;14.30;;;;;;;;;;4987132;28;20417;-60
2020/12/01 05:25:57;;;;;;;27.33;14.18;;;;;;;;;;4970297;28;20051;-59
2020/12/01 05:28:24;;;;;;;31.95;15.23;;;;;;;;;;4971526;28;20391;-59
2020/12/01 05:31:00;;;;;;;30.48;14.40;;;;;;;;;;4971986;28;20058;-60
2020/12/01 05:33:31;;;;;;;31.65;15.80;;;;;;;;;;4970069;28;20109;-60
2020/12/01 05:36:16;;;;;;;36.47;16.45;;;;;;;;;;4969055;28;20109;-59
2020/12/01 05:38:43;;;;;;;43.22;16.63;;;;;;;;;;4971152;28;20062;-59
2020/12/01 05:41:22;;;;;;;31.90;17.13;;;;;;;;;;4970815;28;20043;-59
2020/12/01 05:44:01;;;;;;;35.03;16.33;;;;;;;;;;4971151;28;20054;-60
2020/12/01 05:46:42;;;;;;;37.08;16.77;;;;;;;;;;4967604;28;20062;-59
2020/12/01 05:49:37;;;;;;;40.88;17.38;;;;;;;;;;4946011;28;20094;-60
2020/12/01 05:52:16;;;;;;;37.00;16.65;;;;;;;;;;4972479;28;20460;-60
2020/12/01 05:54:45;;;;;;;37.85;16.48;;;;;;;;;;4971032;28;20069;-59
2020/12/01 05:57:25;;;;;;;42.00;17.23;;;;;;;;;;4974383;28;20051;-60
2020/12/01 06:00:01;;;;;;;42.60;17.80;;;;;;;;;;4989989;28;20393;-60
2020/12/01 06:02:40;;;;;;;46.95;18.38;;;;;;;;;;4968740;28;20152;-60
2020/12/01 06:05:13;;;;;;;42.58;18.20;;;;;;;;;;4972285;28;20489;-59
2020/12/01 06:07:43;;;;;;;46.22;18.65;;;;;;;;;;4974000;28;20062;-60
2020/12/01 06:10:38;;;;;;;49.03;19.38;;;;;;;;;;4974142;28;20054;-60
2020/12/01 06:13:05;;;;;;;47.25;18.88;;;;;;;;;;4974401;28;20185;-60
2020/12/01 06:15:33;;;;;;;48.67;18.70;;;;;;;;;;4974468;28;20051;-60
2020/12/01 06:22:02;;;;;;;38.67;17.40;;;;;;;;;;4984905;23;20096;-60
2020/12/01 06:24:40;;;;;;;40.55;19.42;;;;;;;;;;4994287;28;20405;-60
2020/12/01 06:27:22;;;;;;;46.95;19.65;;;;;;;;;;4977013;28;20145;-59
2020/12/01 06:29:59;;;;;;;45.17;19.48;;;;;;;;;;4993634;28;20493;-60
2020/12/01 06:32:40;;;;;;;49.60;19.50;;;;;;;;;;4977294;28;20382;-61
2020/12/01 06:35:09;;;;;;;44.20;19.85;;;;;;;;;;4993052;28;20065;-61
2020/12/01 06:37:40;;;;;;;36.75;18.02;;;;;;;;;;4993112;28;20061;-60
2020/12/01 06:40:18;;;;;;;39.05;17.55;;;;;;;;;;4977459;28;20141;-60
2020/12/01 06:42:53;;;;;;;38.10;17.25;;;;;;;;;;4962856;28;20505;-60
2020/12/01 06:45:31;;;;;;;35.47;16.90;;;;;;;;;;4992303;28;20160;-60
2020/12/01 06:48:22;;;;;;;47.00;17.33;;;;;;;;;;4993026;28;20081;-60
2020/12/01 06:50:53;;;;;;;45.58;18.95;;;;;;;;;;4979388;28;20055;-60
2020/12/01 06:53:29;;;;;;;35.50;16.52;;;;;;;;;;4993239;28;20054;-60
2020/12/01 06:55:57;;;;;;;46.30;19.80;;;;;;;;;;4992320;28;20405;-60
2020/12/01 06:58:26;;;;;;;46.92;18.77;;;;;;;;;;4993009;28;20054;-60
2020/12/01 07:01:15;;;;;;;42.63;17.95;;;;;;;;;;4993073;28;20405;-60
2020/12/01 07:03:41;;;;;;;42.78;17.38;;;;;;;;;;4994097;28;20057;-60
2020/12/01 07:06:23;;;;;;;54.28;19.80;;;;;;;;;;4992088;28;20054;-60
2020/12/01 07:08:50;;;;;;;41.90;18.73;;;;;;;;;;4992129;28;20055;-64
2020/12/01 07:11:31;;;;;;;41.85;18.10;;;;;;;;;;4989904;28;20069;-61
2020/12/01 07:14:02;;;;;;;51.05;19.65;;;;;;;;;;4991025;28;20046;-61
2020/12/01 07:16:39;;;;;;;49.67;19.08;;;;;;;;;;4990033;28;20401;-60
2020/12/01 07:19:14;;;;;;;49.90;19.98;;;;;;;;;;4991009;28;20078;-62
2020/12/01 07:22:05;;;;;;;47.40;18.67;;;;;;;;;;4974585;28;20062;-61
2020/12/01 07:24:43;;;;;;;52.95;17.80;;;;;;;;;;4975077;28;20069;-61
2020/12/01 07:27:27;;;;;;;44.60;16.83;;;;;;;;;;4973978;28;20057;-63
2020/12/01 07:30:07;;;;;;;56.78;18.80;;;;;;;;;;4976119;28;20074;-63
2020/12/01 07:32:50;;;;;;;57.53;18.27;;;;;;;;;;4989931;28;20046;-61
2020/12/01 07:35:35;;;;;;;;;;;;;;;;;;4973775;28;20065;-63
2020/12/01 07:38:20;;;;;;;45.33;17.80;;;;;;;;;;4990215;28;20156;-61
2020/12/01 07:41:24;;;;;;;43.53;17.85;;;;;;;;;;4990241;28;20112;-60
2020/12/01 07:44:03;;;;;;;43.03;17.98;;;;;;;;;;4976488;28;20050;-61
2020/12/01 07:46:30;;;;;;;43.17;18.45;;;;;;;;;;4989201;28;20051;-61
2020/12/01 07:48:58;;;;;;;49.35;18.70;;;;;;;;;;4989850;28;20330;-61
2020/12/01 07:51:24;;;;;;;52.00;20.40;;;;;;;;;;4989964;28;20054;-61
2020/12/01 07:53:51;;;;;;;45.17;19.15;;;;;;;;;;4990334;28;20415;-63
2020/12/01 07:56:17;;;;;;;43.30;17.38;;;;;;;;;;4973065;28;20050;-60
2020/12/01 07:59:00;;;;;;;63.83;20.10;;;;;;;;;;4989641;28;20050;-60
2020/12/01 08:01:26;;;;;;;;;;;;;;;;;;4989889;28;20417;-61
2020/12/01 08:04:02;;;;;;;54.65;20.30;;;;;;;;;;4989641;28;19928;-63
2020/12/01 08:06:28;;;;;;;58.47;20.98;;;;;;;;;;4958635;28;20062;-63
2020/12/01 08:08:54;;;;;;;50.92;20.63;;;;;;;;;;4989670;28;20050;-63
2020/12/01 08:11:22;;;;;;;52.03;19.13;;;;;;;;;;4980840;28;20512;-62
2020/12/01 08:13:52;;;;;;;52.15;20.45;;;;;;;;;;4981725;28;20046;-62
2020/12/01 08:16:21;;;;;;;65.45;21.88;;;;;;;;;;4974643;28;20115;-62
2020/12/01 08:18:51;;;;;;;50.95;19.77;;;;;;;;;;4976119;28;20388;-62
2020/12/01 08:21:23;;;;;;;50.42;20.13;;;;;;;;;;4978796;28;20133;-61
2020/12/01 08:23:51;;;;;;;48.25;17.75;;;;;;;;;;4978161;28;20383;-69
2020/12/01 08:26:32;;;;;;;54.08;19.65;;;;;;;;;;4976148;28;20049;-62
2020/12/01 08:29:06;;;;;;;57.63;20.00;;;;;;;;;;4977820;28;20050;-62
2020/12/01 08:32:05;;;;;;;47.10;20.25;;;;;;;;;;4980172;28;20050;-62
2020/12/01 08:35:02;;;;;;;45.80;17.40;;;;;;;;;;4977606;28;20145;-62
2020/12/01 08:37:43;;;;;;;51.00;18.80;;;;;;;;;;4996131;28;20066;-62
2020/12/01 08:40:45;;;;;;;49.10;18.60;;;;;;;;;;4977556;28;20050;-63
2020/12/01 08:43:20;;;;;;;47.58;19.33;;;;;;;;;;4937169;28;20061;-62
2020/12/01 08:45:54;;;;;;;37.42;16.42;;;;;;;;;;5010668;28;20051;-62
2020/12/01 08:48:29;;;;;;;45.20;17.55;;;;;;;;;;4978374;28;20054;-62
2020/12/01 08:51:07;;;;;;;38.63;17.83;;;;;;;;;;4977264;28;20054;-62
2020/12/01 08:53:47;;;;;;;39.35;16.67;;;;;;;;;;4981173;28;20057;-62
2020/12/01 08:56:20;;;;;;;43.83;18.30;;;;;;;;;;4978640;28;20065;-62
2020/12/01 08:58:47;;;;;;;40.40;18.13;;;;;;;;;;4976026;28;20046;-62
2020/12/01 09:01:14;;;;;;;42.53;16.38;;;;;;;;;;4977507;28;20042;-62
2020/12/01 09:03:55;;;;;;;42.92;18.75;;;;;;;;;;4977674;28;20058;-63
2020/12/01 09:06:30;;;;;;;39.25;15.98;;;;;;;;;;4977936;28;20058;-62
2020/12/01 09:09:01;;;;;;;37.58;16.35;;;;;;;;;;4963688;28;20073;-62
2020/12/01 09:11:52;;;;;;;37.35;17.25;;;;;;;;;;5022193;28;20052;-62
2020/12/01 09:14:39;;;;;;;37.22;15.90;;;;;;;;;;4988926;28;20141;-62
2020/12/01 09:17:22;;;;;;;37.03;16.92;;;;;;;;;;4980495;28;20047;-62
2020/12/01 09:20:13;;;;;;;32.03;15.50;;;;;;;;;;4961112;28;20058;-63
2020/12/01 09:22:39;;;;;;;32.20;17.25;;;;;;;;;;4973630;28;20046;-63
2020/12/01 09:25:26;;;;;;;34.90;17.00;;;;;;;;;;4976389;28;20047;-62
2020/12/01 09:27:53;;;;;;;37.13;16.95;;;;;;;;;;4992605;28;20050;-63
2020/12/01 09:30:30;;;;;;;36.28;16.25;;;;;;;;;;4978884;28;20528;-63
2020/12/01 09:32:57;;;;;;;41.88;18.55;;;;;;;;;;4983675;28;20493;-62
2020/12/01 09:35:25;;;;;;;33.03;15.98;;;;;;;;;;4977167;28;20145;-63
2020/12/01 09:37:51;;;;;;;33.17;15.82;;;;;;;;;;4980259;28;20057;-62
2020/12/01 09:40:18;;;;;;;33.45;16.73;;;;;;;;;;4979734;28;20049;-62
2020/12/01 09:42:48;;;;;;;41.33;16.35;;;;;;;;;;4980871;28;20054;-63
2020/12/01 09:45:20;;;;;;;38.17;16.25;;;;;;;;;;4981304;28;20052;-63
2020/12/01 09:48:36;;;;;;;39.63;17.50;;;;;;;;;;4980646;28;20050;-62
2020/12/01 09:50:36;;;;;;;41.38;18.88;;;;;;;;;;4975348;28;20059;-63
2020/12/01 09:53:21;;;;;;;38.13;17.58;;;;;;;;;;4980223;28;20405;-62
2020/12/01 10:36:25;;;;;;;28.67;15.00;;;;;;;;;;5027605;28;20056;-63
2020/12/01 10:38:52;;;;;;;31.73;16.33;;;;;;;;;;5028554;28;20051;-62
2020/12/01 10:41:19;;;;;;;28.83;15.80;;;;;;;;;;5025772;28;20033;-63
2020/12/01 10:43:45;;;;;;;31.55;14.32;;;;;;;;;;5021102;28;20046;-63
2020/12/01 10:46:13;;;;;;;30.95;16.25;;;;;;;;;;5016268;28;20045;-62
2020/12/01 10:48:39;;;;;;;26.67;14.65;;;;;;;;;;5033306;28;20064;-62
2020/12/01 10:51:06;;;;;;;31.45;15.52;;;;;;;;;;5035676;28;20515;-62
2020/12/01 10:53:32;;;;;;;39.80;16.80;;;;;;;;;;5018463;28;20045;-63
2020/12/01 10:55:59;;;;;;;37.33;16.83;;;;;;;;;;5018070;28;20064;-61
2020/12/01 10:58:25;;;;;;;28.38;14.95;;;;;;;;;;5035387;28;20056;-62
2020/12/01 11:00:51;;;;;;;28.77;14.63;;;;;;;;;;5018928;28;20049;-62
2020/12/01 11:03:18;;;;;;;39.08;17.05;;;;;;;;;;5021651;28;20061;-62
2020/12/01 11:05:44;;;;;;;29.95;15.98;;;;;;;;;;5036197;28;20144;-62
2020/12/01 11:08:10;;;;;;;33.60;16.65;;;;;;;;;;5018324;28;20053;-63
2020/12/01 11:10:36;;;;;;;36.53;16.92;;;;;;;;;;5034553;28;20057;-63
2020/12/01 11:13:03;;;;;;;33.97;16.75;;;;;;;;;;5017862;28;20053;-62
2020/12/01 11:15:29;;;;;;;29.02;15.35;;;;;;;;;;4999968;28;20057;-63
2020/12/01 11:17:56;;;;;;;31.00;15.60;;;;;;;;;;5002946;28;20082;-63
2020/12/01 11:20:22;;;;;;;32.22;15.85;;;;;;;;;;5033913;28;20064;-63
2020/12/01 11:22:49;;;;;;;30.90;16.85;;;;;;;;;;5018725;28;20056;-62
2020/12/01 11:25:20;;;;;;;28.23;15.50;;;;;;;;;;5018978;28;20045;-63
2020/12/01 11:27:46;;;;;;;30.88;14.73;;;;;;;;;;5032748;28;20069;-63
2020/12/01 11:30:14;;;;;;;32.13;17.08;;;;;;;;;;5020502;28;20111;-63
2020/12/01 11:32:40;;;;;;;26.45;14.15;;;;;;;;;;5018101;28;20053;-62
2020/12/01 11:35:09;;;;;;;27.73;14.98;;;;;;;;;;5018466;28;20041;-63
2020/12/01 11:37:35;;;;;;;31.65;14.60;;;;;;;;;;5015896;28;20054;-63
2020/12/01 11:40:03;;;;;;;28.17;15.07;;;;;;;;;;5009127;28;20056;-62
2020/12/01 11:42:29;;;;;;;28.80;15.73;;;;;;;;;;5017475;28;20546;-62
2020/12/01 11:44:55;;;;;;;26.67;15.57;;;;;;;;;;5017218;28;20049;-63
2020/12/01 11:47:22;;;;;;;29.88;15.02;;;;;;;;;;5017992;28;20049;-62
2020/12/01 11:49:48;;;;;;;27.70;13.80;;;;;;;;;;5016900;28;20058;-63
2020/12/01 11:52:14;;;;;;;26.80;15.10;;;;;;;;;;5016896;28;20042;-61
2020/12/01 11:54:40;;;;;;;30.83;15.80;;;;;;;;;;5015107;28;20049;-62
2020/12/01 11:57:06;;;;;;;37.20;16.42;;;;;;;;;;5019362;28;20049;-62
2020/12/01 11:59:32;;;;;;;28.48;15.20;;;;;;;;;;5016806;28;20396;-62
2020/12/01 12:01:59;;;;;;;28.63;14.90;;;;;;;;;;5017234;28;20041;-62
2020/12/01 12:04:25;;;;;;;26.33;14.40;;;;;;;;;;5015235;28;20042;-61
2020/12/01 12:06:51;;;;;;;27.20;14.85;;;;;;;;;;5018842;28;20056;-62
2020/12/01 12:09:18;;;;;;;23.48;13.65;;;;;;;;;;5018701;28;20050;-62
2020/12/01 12:11:44;;;;;;;29.23;15.50;;;;;;;;;;5018473;28;20050;-62
2020/12/01 12:14:11;;;;;;;26.10;14.20;;;;;;;;;;5014907;28;20314;-62
2020/12/01 12:16:38;;;;;;;29.55;15.55;;;;;;;;;;5021854;28;20068;-62
2020/12/01 12:22:51;;;;;;;30.25;13.90;;;;;;;;;;5024428;23;20525;-62
2020/12/01 12:25:17;;;;;;;27.00;14.43;;;;;;;;;;5036281;28;20050;-61
2020/12/01 12:27:43;;;;;;;25.65;14.07;;;;;;;;;;5018627;28;20497;-62
2020/12/01 12:30:09;;;;;;;30.73;13.75;;;;;;;;;;5017163;28;20381;-62
2020/12/01 12:32:35;;;;;;;34.08;15.73;;;;;;;;;;5014633;28;20046;-62
2020/12/01 12:35:04;;;;;;;30.95;16.95;;;;;;;;;;5033894;28;20559;-62
2020/12/01 12:37:30;;;;;;;29.30;15.63;;;;;;;;;;5030347;28;20485;-62
2020/12/01 12:39:56;;;;;;;30.60;15.98;;;;;;;;;;5020268;28;20041;-61
2020/12/01 12:42:22;;;;;;;25.75;13.45;;;;;;;;;;5031587;28;20053;-62
2020/12/01 12:44:48;;;;;;;26.27;14.13;;;;;;;;;;5017553;28;20049;-62
2020/12/01 12:47:15;;;;;;;21.90;13.10;;;;;;;;;;5020941;28;20077;-62
2020/12/01 12:49:41;;;;;;;26.25;14.13;;;;;;;;;;5018866;28;20555;-62
2020/12/01 12:52:07;;;;;;;27.35;14.48;;;;;;;;;;5032139;28;20061;-62
2020/12/01 12:54:34;;;;;;;25.27;13.30;;;;;;;;;;5031687;28;20053;-62
2020/12/01 12:57:00;;;;;;;25.50;14.23;;;;;;;;;;5031593;28;20696;-62
2020/12/01 12:59:26;;;;;;;23.63;13.00;;;;;;;;;;5018911;28;20053;-61
2020/12/01 13:01:52;;;;;;;22.83;13.90;;;;;;;;;;5034093;28;20607;-62
2020/12/01 13:04:18;;;;;;;18.15;11.50;;;;;;;;;;5033437;28;20042;-62
2020/12/01 13:06:45;;;;;;;18.95;11.27;;;;;;;;;;5035709;28;20531;-62
2020/12/01 13:09:11;;;;;;;23.17;13.52;;;;;;;;;;5012078;28;20045;-63
2020/12/01 13:11:37;;;;;;;21.90;12.65;;;;;;;;;;5018315;28;20049;-62
2020/12/01 13:14:03;;;;;;;23.88;12.95;;;;;;;;;;5017736;28;20052;-62
2020/12/01 13:16:30;;;;;;;23.02;13.23;;;;;;;;;;5019384;28;20058;-62
2020/12/01 13:18:56;;;;;;;23.00;12.18;;;;;;;;;;5014112;28;20065;-61
2020/12/01 13:21:22;;;;;;;23.30;13.23;;;;;;;;;;5014729;28;20393;-62
2020/12/01 13:23:48;;;;;;;21.85;13.65;;;;;;;;;;5004444;28;20052;-62
2020/12/01 13:26:19;;;;;;;23.10;12.93;;;;;;;;;;5015900;28;20566;-63
2020/12/01 13:28:46;;;;;;;26.90;14.48;;;;;;;;;;5033141;28;20065;-62
2020/12/01 13:31:12;;;;;;;23.40;13.20;;;;;;;;;;5029670;28;20040;-63
2020/12/01 13:33:39;;;;;;;31.98;14.95;;;;;;;;;;5030887;28;20053;-63
2020/12/01 13:36:06;;;;;;;24.42;14.32;;;;;;;;;;5015367;28;20054;-64
2020/12/01 13:38:33;;;;;;;29.63;16.83;;;;;;;;;;5015311;28;20053;-63
2020/12/01 13:40:59;;;;;;;33.67;16.92;;;;;;;;;;4997272;28;20156;-64
2020/12/01 13:43:25;;;;;;;28.88;15.35;;;;;;;;;;5029290;28;20046;-63
2020/12/01 13:45:52;;;;;;;31.50;15.68;;;;;;;;;;5015817;28;20057;-63
2020/12/01 13:48:18;;;;;;;33.33;16.35;;;;;;;;;;5031993;28;20525;-63
2020/12/01 13:50:44;;;;;;;31.27;15.77;;;;;;;;;;5015195;28;20061;-63
2020/12/01 13:53:10;;;;;;;27.45;14.88;;;;;;;;;;5013893;28;20454;-63
2020/12/01 13:55:36;;;;;;;30.85;16.00;;;;;;;;;;5013550;28;20053;-63
2020/12/01 13:58:02;;;;;;;29.17;14.90;;;;;;;;;;5037542;28;20261;-62
2020/12/01 14:00:30;;;;;;;28.05;15.18;;;;;;;;;;5027291;28;20151;-62
2020/12/01 14:02:57;;;;;;;27.00;14.52;;;;;;;;;;5027387;28;20128;-65
2020/12/01 14:05:24;;;;;;;27.27;13.93;;;;;;;;;;5026256;28;20072;-63
2020/12/01 14:07:52;;;;;;;29.92;14.60;;;;;;;;;;5027680;28;20050;-63
2020/12/01 14:10:19;;;;;;;23.85;14.98;;;;;;;;;;5026478;28;20064;-63
2020/12/01 14:12:46;;;;;;;25.25;13.98;;;;;;;;;;5027229;28;20061;-62
2020/12/01 14:15:12;;;;;;;29.20;15.10;;;;;;;;;;5026539;28;20050;-61
2020/12/01 14:17:38;;;;;;;33.72;15.88;;;;;;;;;;5028380;28;20045;-60
2020/12/01 14:20:10;;;;;;;30.85;15.85;;;;;;;;;;5030451;28;20057;-60
2020/12/01 14:22:37;;;;;;;31.58;15.05;;;;;;;;;;5030137;28;20046;-61
2020/12/01 14:25:05;;;;;;;25.65;14.13;;;;;;;;;;5030426;28;20068;-61
2020/12/01 14:27:31;;;;;;;24.98;13.80;;;;;;;;;;5030354;28;20054;-61
2020/12/01 14:29:57;;;;;;;24.23;13.73;;;;;;;;;;5031281;28;20446;-60
2020/12/01 14:32:23;;;;;;;30.95;15.23;;;;;;;;;;5030730;28;20057;-61
2020/12/01 14:34:49;;;;;;;26.20;14.30;;;;;;;;;;5029692;28;20072;-60
2020/12/01 14:37:17;;;;;;;26.83;14.45;;;;;;;;;;5029672;28;20057;-61
2020/12/01 14:39:44;;;;;;;27.90;14.40;;;;;;;;;;5030490;28;20049;-60
2020/12/01 14:42:13;;;;;;;27.15;14.13;;;;;;;;;;5030184;28;20076;-60
2020/12/01 14:44:39;;;;;;;26.05;15.73;;;;;;;;;;5029457;28;20056;-61
2020/12/01 14:48:00;;;;;;;37.42;23.70;;;;;;;;;;5029515;28;20133;-60
2020/12/01 14:50:48;;;;;;;28.58;17.83;;;;;;;;;;4972445;28;20755;-60
2020/12/01 14:53:31;;;;;;;29.52;17.50;;;;;;;;;;5030061;28;20061;-61
2020/12/01 14:56:15;;;;;;;32.58;18.10;;;;;;;;;;5027822;28;20053;-62
2020/12/01 14:58:53;;;;;;;31.10;16.65;;;;;;;;;;5030831;28;20381;-61
2020/12/01 15:01:37;;;;;;;30.83;16.13;;;;;;;;;;5013717;28;20052;-61
2020/12/01 15:04:21;;;;;;;34.75;17.73;;;;;;;;;;5013639;28;20061;-61
2020/12/01 15:07:24;;;;;;;32.05;17.65;;;;;;;;;;5029573;28;20054;-61
2020/12/01 15:09:56;;;;;;;27.73;14.63;;;;;;;;;;5022858;28;20489;-62
2020/12/01 15:12:58;;;;;;;32.53;15.32;;;;;;;;;;5015766;28;20049;-62
2020/12/01 15:15:31;;;;;;;25.00;13.57;;;;;;;;;;5025519;28;20064;-58
2020/12/01 15:18:19;;;;;;;22.23;12.85;;;;;;;;;;5021593;28;20050;-61
2020/12/01 15:20:46;;;;;;;24.17;14.20;;;;;;;;;;5018202;28;20053;-62
2020/12/01 15:23:26;;;;;;;23.65;12.82;;;;;;;;;;5017174;28;20100;-62
2020/12/01 15:25:54;;;;;;;27.48;13.88;;;;;;;;;;5052109;28;20480;-61
2020/12/01 15:28:34;;;;;;;25.75;14.00;;;;;;;;;;5033498;28;20041;-62